Airfield :
LOGIN :

Register | Disclaimer

   EN    FR    IT 

 










Legend :    VFR   Marginal VFR   IFR   Intensive IFR   Very Intensive IFR
Visi :
Ceiling :
>= 8 km
>= 3000ft
5 to 8 km
1000 to 3000 ft
1500m to 5 km
500 to 1000 ft
800 to 1500m
200 to 500 ft
< 800m
< 200 ft
Symbols :   Thunderstorms  Fog  Heavy snow  Heavy precipitations  Wind > 20 kt
SIGMETs :     Misc.  Thunderstorms  Icing  Turbulence  Mountain Waves  Volcanic Ashes






- Airport Elevation : 7 ft
- IATA code : XHE


LFTH - Hyeres

CURRENT METAR :
  • 290900Z AUTO 17008KT 130V220 CAVOK 25/14 Q1004 NOSIG

EXPIRED METARs :
  • 290830Z AUTO 03003KT 350V080 CAVOK 26/13 Q1003 BECMG 18010KT
  • 290800Z AUTO 01005KT 340V050 CAVOK 26/12 Q1004 BECMG 18010KT
  • 290730Z AUTO 35006KT 310V040 CAVOK 25/10 Q1004 BECMG 18010KT
  • 290700Z AUTO 34008KT 300V010 CAVOK 24/09 Q1004 BECMG 18010KT
  • 290630Z AUTO 35005KT CAVOK 23/09 Q1003 BECMG 18010KT

TAF TAF LFTH
Valid from the 29 at 09:00 until the 30 at 09:00 UTC


290800Z 2909/3009 15005KT CAVOK
BECMG 2909/2911 22012KT
TEMPO 2914/2917 24015G25KT
BECMG 2919/2921 VRB04KT



MET'MAP, your aeronautical weather chart ! - Copyright ORBIFLY December 2007 - Disclaimer

ORBIFLY MET'MAP TEAM :

Programming & Development : Alexandra Zaïnal
Original concept : Baudouin d'Aumeries
Technical & hardware support : Manuel Goepfert
Assistance : Marc-Olivier Méhu

Contact : metmap@orbifly.com




SOURCES & CREDITS :

   NOAA